sensor_id;sensor_type;location;lat;lon;timestamp;temperature;humidity
4390;DHT22;2209;48.982;8.406;2023-10-13T00:01:57;21.10;96.70
4390;DHT22;2209;48.982;8.406;2023-10-13T00:04:20;21.20;96.20
4390;DHT22;2209;48.982;8.406;2023-10-13T00:06:43;21.20;95.90
4390;DHT22;2209;48.982;8.406;2023-10-13T00:09:06;21.20;95.50
4390;DHT22;2209;48.982;8.406;2023-10-13T00:11:36;21.20;95.30
4390;DHT22;2209;48.982;8.406;2023-10-13T00:13:58;21.20;95.10
4390;DHT22;2209;48.982;8.406;2023-10-13T00:16:24;21.20;95.00
4390;DHT22;2209;48.982;8.406;2023-10-13T00:18:48;21.20;95.00
4390;DHT22;2209;48.982;8.406;2023-10-13T00:21:11;21.20;95.00
4390;DHT22;2209;48.982;8.406;2023-10-13T00:23:42;21.20;95.00
4390;DHT22;2209;48.982;8.406;2023-10-13T00:26:13;21.20;95.00
4390;DHT22;2209;48.982;8.406;2023-10-13T00:28:40;21.20;95.00
4390;DHT22;2209;48.982;8.406;2023-10-13T00:31:07;21.20;95.00
4390;DHT22;2209;48.982;8.406;2023-10-13T00:33:32;21.20;94.90
4390;DHT22;2209;48.982;8.406;2023-10-13T00:35:56;21.20;94.90
4390;DHT22;2209;48.982;8.406;2023-10-13T00:38:19;21.20;94.90
4390;DHT22;2209;48.982;8.406;2023-10-13T00:40:44;21.20;94.90
4390;DHT22;2209;48.982;8.406;2023-10-13T00:43:12;21.20;94.90
4390;DHT22;2209;48.982;8.406;2023-10-13T00:45:55;21.20;95.00
4390;DHT22;2209;48.982;8.406;2023-10-13T00:48:17;21.20;95.00
4390;DHT22;2209;48.982;8.406;2023-10-13T00:50:39;21.20;95.00
4390;DHT22;2209;48.982;8.406;2023-10-13T00:53:01;21.20;95.00
4390;DHT22;2209;48.982;8.406;2023-10-13T00:55:23;21.20;95.00
4390;DHT22;2209;48.982;8.406;2023-10-13T00:57:50;21.10;95.00
4390;DHT22;2209;48.982;8.406;2023-10-13T01:00:14;21.10;95.00
4390;DHT22;2209;48.982;8.406;2023-10-13T01:02:41;21.10;94.90
4390;DHT22;2209;48.982;8.406;2023-10-13T01:05:03;21.10;94.90
4390;DHT22;2209;48.982;8.406;2023-10-13T01:07:25;21.20;95.00
4390;DHT22;2209;48.982;8.406;2023-10-13T01:09:47;21.10;94.90
4390;DHT22;2209;48.982;8.406;2023-10-13T01:12:08;21.10;94.90
4390;DHT22;2209;48.982;8.406;2023-10-13T01:14:30;21.10;94.80
4390;DHT22;2209;48.982;8.406;2023-10-13T01:16:52;21.10;94.70
4390;DHT22;2209;48.982;8.406;2023-10-13T01:19:17;21.10;94.60
4390;DHT22;2209;48.982;8.406;2023-10-13T01:21:40;21.10;94.60
4390;DHT22;2209;48.982;8.406;2023-10-13T01:24:04;21.10;94.60
4390;DHT22;2209;48.982;8.406;2023-10-13T01:26:28;21.10;94.50
4390;DHT22;2209;48.982;8.406;2023-10-13T01:28:51;21.10;94.30
4390;DHT22;2209;48.982;8.406;2023-10-13T01:31:12;21.10;94.40
4390;DHT22;2209;48.982;8.406;2023-10-13T01:33:45;21.10;94.40
4390;DHT22;2209;48.982;8.406;2023-10-13T01:36:07;21.10;94.30
4390;DHT22;2209;48.982;8.406;2023-10-13T01:38:29;21.10;94.30
4390;DHT22;2209;48.982;8.406;2023-10-13T01:40:55;21.10;94.20
4390;DHT22;2209;48.982;8.406;2023-10-13T01:43:20;21.10;94.10
4390;DHT22;2209;48.982;8.406;2023-10-13T01:45:41;21.10;94.10
4390;DHT22;2209;48.982;8.406;2023-10-13T01:48:10;21.10;94.20
4390;DHT22;2209;48.982;8.406;2023-10-13T01:50:31;21.10;94.40
4390;DHT22;2209;48.982;8.406;2023-10-13T01:52:53;21.10;94.70
4390;DHT22;2209;48.982;8.406;2023-10-13T01:55:20;21.10;94.90
4390;DHT22;2209;48.982;8.406;2023-10-13T01:57:44;21.10;94.90
4390;DHT22;2209;48.982;8.406;2023-10-13T02:00:09;21.10;94.90
4390;DHT22;2209;48.982;8.406;2023-10-13T02:02:39;21.10;94.90
4390;DHT22;2209;48.982;8.406;2023-10-13T02:05:06;21.10;95.00
4390;DHT22;2209;48.982;8.406;2023-10-13T02:07:28;21.10;95.00
4390;DHT22;2209;48.982;8.406;2023-10-13T02:09:50;21.10;95.10
4390;DHT22;2209;48.982;8.406;2023-10-13T02:12:15;21.10;95.20
4390;DHT22;2209;48.982;8.406;2023-10-13T02:14:37;21.10;95.20
4390;DHT22;2209;48.982;8.406;2023-10-13T02:16:59;21.00;95.10
4390;DHT22;2209;48.982;8.406;2023-10-13T02:19:33;21.10;95.10
4390;DHT22;2209;48.982;8.406;2023-10-13T02:21:55;21.00;95.10
4390;DHT22;2209;48.982;8.406;2023-10-13T02:24:19;21.00;95.10
4390;DHT22;2209;48.982;8.406;2023-10-13T02:26:50;21.00;94.90
4390;DHT22;2209;48.982;8.406;2023-10-13T02:29:11;21.00;94.80
4390;DHT22;2209;48.982;8.406;2023-10-13T02:31:36;21.00;94.70
4390;DHT22;2209;48.982;8.406;2023-10-13T02:33:58;21.00;94.70
4390;DHT22;2209;48.982;8.406;2023-10-13T02:36:21;21.00;94.70
4390;DHT22;2209;48.982;8.406;2023-10-13T02:38:44;21.00;94.70
4390;DHT22;2209;48.982;8.406;2023-10-13T02:41:10;21.00;94.70
4390;DHT22;2209;48.982;8.406;2023-10-13T02:43:33;21.00;94.70
4390;DHT22;2209;48.982;8.406;2023-10-13T02:45:55;20.90;94.60
4390;DHT22;2209;48.982;8.406;2023-10-13T02:48:20;20.90;94.70
4390;DHT22;2209;48.982;8.406;2023-10-13T02:50:43;20.90;94.70
4390;DHT22;2209;48.982;8.406;2023-10-13T02:53:04;20.90;94.80
4390;DHT22;2209;48.982;8.406;2023-10-13T02:55:33;20.90;94.90
4390;DHT22;2209;48.982;8.406;2023-10-13T02:57:54;20.90;94.90
4390;DHT22;2209;48.982;8.406;2023-10-13T03:00:17;20.90;94.90
4390;DHT22;2209;48.982;8.406;2023-10-13T03:02:43;20.90;95.00
4390;DHT22;2209;48.982;8.406;2023-10-13T03:05:09;20.80;95.00
4390;DHT22;2209;48.982;8.406;2023-10-13T03:07:34;20.80;94.90
4390;DHT22;2209;48.982;8.406;2023-10-13T03:09:58;20.80;94.90
4390;DHT22;2209;48.982;8.406;2023-10-13T03:12:22;20.80;95.00
4390;DHT22;2209;48.982;8.406;2023-10-13T03:14:45;20.80;95.80
4390;DHT22;2209;48.982;8.406;2023-10-13T03:17:09;20.70;96.60
4390;DHT22;2209;48.982;8.406;2023-10-13T03:19:35;20.70;96.30
4390;DHT22;2209;48.982;8.406;2023-10-13T03:22:00;20.70;95.80
4390;DHT22;2209;48.982;8.406;2023-10-13T03:24:30;20.70;95.70
4390;DHT22;2209;48.982;8.406;2023-10-13T03:26:55;20.70;95.60
4390;DHT22;2209;48.982;8.406;2023-10-13T03:29:16;20.70;95.50
4390;DHT22;2209;48.982;8.406;2023-10-13T03:31:42;20.70;95.30
4390;DHT22;2209;48.982;8.406;2023-10-13T03:34:06;20.70;95.30
4390;DHT22;2209;48.982;8.406;2023-10-13T03:36:32;20.70;95.20
4390;DHT22;2209;48.982;8.406;2023-10-13T03:39:13;20.70;95.50
4390;DHT22;2209;48.982;8.406;2023-10-13T03:41:35;20.70;95.10
4390;DHT22;2209;48.982;8.406;2023-10-13T03:44:00;20.70;95.00
4390;DHT22;2209;48.982;8.406;2023-10-13T03:46:34;20.70;94.90
4390;DHT22;2209;48.982;8.406;2023-10-13T03:48:57;20.70;94.80
4390;DHT22;2209;48.982;8.406;2023-10-13T03:51:22;20.70;94.90
4390;DHT22;2209;48.982;8.406;2023-10-13T03:53:51;20.60;94.80
4390;DHT22;2209;48.982;8.406;2023-10-13T03:56:15;20.60;94.70
4390;DHT22;2209;48.982;8.406;2023-10-13T03:58:47;20.60;94.60
4390;DHT22;2209;48.982;8.406;2023-10-13T04:01:09;20.60;94.60
4390;DHT22;2209;48.982;8.406;2023-10-13T04:03:33;20.60;94.60
4390;DHT22;2209;48.982;8.406;2023-10-13T04:05:59;20.60;94.60
4390;DHT22;2209;48.982;8.406;2023-10-13T04:08:27;20.50;94.60
4390;DHT22;2209;48.982;8.406;2023-10-13T04:11:09;20.50;94.60
4390;DHT22;2209;48.982;8.406;2023-10-13T04:13:50;20.60;94.60
4390;DHT22;2209;48.982;8.406;2023-10-13T04:16:30;20.60;94.60
4390;DHT22;2209;48.982;8.406;2023-10-13T04:19:08;20.60;94.60
4390;DHT22;2209;48.982;8.406;2023-10-13T04:21:32;20.60;94.80
4390;DHT22;2209;48.982;8.406;2023-10-13T04:24:15;20.60;95.00
4390;DHT22;2209;48.982;8.406;2023-10-13T04:26:49;20.50;95.50
4390;DHT22;2209;48.982;8.406;2023-10-13T04:29:40;20.50;95.70
4390;DHT22;2209;48.982;8.406;2023-10-13T04:32:12;20.50;95.80
4390;DHT22;2209;48.982;8.406;2023-10-13T04:34:36;20.50;96.50
4390;DHT22;2209;48.982;8.406;2023-10-13T04:37:00;20.40;97.00
4390;DHT22;2209;48.982;8.406;2023-10-13T04:39:43;20.40;97.40
4390;DHT22;2209;48.982;8.406;2023-10-13T04:42:05;20.30;97.10
4390;DHT22;2209;48.982;8.406;2023-10-13T04:44:34;20.30;96.20
4390;DHT22;2209;48.982;8.406;2023-10-13T04:47:14;20.30;95.80
4390;DHT22;2209;48.982;8.406;2023-10-13T04:49:41;20.30;95.50
4390;DHT22;2209;48.982;8.406;2023-10-13T04:52:13;20.30;96.10
4390;DHT22;2209;48.982;8.406;2023-10-13T04:54:47;20.30;96.50
4390;DHT22;2209;48.982;8.406;2023-10-13T04:57:16;20.30;97.00
4390;DHT22;2209;48.982;8.406;2023-10-13T04:59:53;20.30;97.30
4390;DHT22;2209;48.982;8.406;2023-10-13T05:02:48;20.30;97.60
4390;DHT22;2209;48.982;8.406;2023-10-13T05:05:28;20.20;97.80
4390;DHT22;2209;48.982;8.406;2023-10-13T05:08:25;20.20;97.90
4390;DHT22;2209;48.982;8.406;2023-10-13T05:11:05;20.20;97.90
4390;DHT22;2209;48.982;8.406;2023-10-13T05:13:45;20.10;97.90
4390;DHT22;2209;48.982;8.406;2023-10-13T05:16:24;20.10;98.00
4390;DHT22;2209;48.982;8.406;2023-10-13T05:19:05;20.00;97.60
4390;DHT22;2209;48.982;8.406;2023-10-13T05:21:45;20.00;96.50
4390;DHT22;2209;48.982;8.406;2023-10-13T05:24:24;20.00;95.80
4390;DHT22;2209;48.982;8.406;2023-10-13T05:27:04;20.10;95.60
4390;DHT22;2209;48.982;8.406;2023-10-13T05:29:45;20.10;95.30
4390;DHT22;2209;48.982;8.406;2023-10-13T05:32:25;20.20;95.80
4390;DHT22;2209;48.982;8.406;2023-10-13T05:35:07;20.20;96.70
4390;DHT22;2209;48.982;8.406;2023-10-13T05:37:46;20.10;97.30
4390;DHT22;2209;48.982;8.406;2023-10-13T05:40:26;20.10;97.60
4390;DHT22;2209;48.982;8.406;2023-10-13T05:43:20;20.00;97.60
4390;DHT22;2209;48.982;8.406;2023-10-13T05:46:02;20.00;97.90
4390;DHT22;2209;48.982;8.406;2023-10-13T05:48:56;19.90;98.10
4390;DHT22;2209;48.982;8.406;2023-10-13T05:51:33;19.90;98.20
4390;DHT22;2209;48.982;8.406;2023-10-13T05:54:04;19.90;98.20
4390;DHT22;2209;48.982;8.406;2023-10-13T05:56:45;19.80;98.30
4390;DHT22;2209;48.982;8.406;2023-10-13T05:59:25;19.80;98.20
4390;DHT22;2209;48.982;8.406;2023-10-13T06:02:01;19.80;98.20
4390;DHT22;2209;48.982;8.406;2023-10-13T06:04:41;19.80;98.10
4390;DHT22;2209;48.982;8.406;2023-10-13T06:07:21;19.70;98.00
4390;DHT22;2209;48.982;8.406;2023-10-13T06:10:01;19.70;97.90
4390;DHT22;2209;48.982;8.406;2023-10-13T06:12:40;19.80;98.20
4390;DHT22;2209;48.982;8.406;2023-10-13T06:15:20;19.70;97.80
4390;DHT22;2209;48.982;8.406;2023-10-13T06:17:59;19.80;97.90
4390;DHT22;2209;48.982;8.406;2023-10-13T06:20:39;19.70;97.80
4390;DHT22;2209;48.982;8.406;2023-10-13T06:23:20;19.70;97.60
4390;DHT22;2209;48.982;8.406;2023-10-13T06:25:59;19.70;97.70
4390;DHT22;2209;48.982;8.406;2023-10-13T06:28:39;19.70;97.90
4390;DHT22;2209;48.982;8.406;2023-10-13T06:31:05;19.60;97.90
4390;DHT22;2209;48.982;8.406;2023-10-13T06:33:27;19.60;98.10
4390;DHT22;2209;48.982;8.406;2023-10-13T06:35:50;19.60;98.10
4390;DHT22;2209;48.982;8.406;2023-10-13T06:38:12;19.60;98.20
4390;DHT22;2209;48.982;8.406;2023-10-13T06:40:46;19.60;98.30
4390;DHT22;2209;48.982;8.406;2023-10-13T06:43:09;19.60;98.40
4390;DHT22;2209;48.982;8.406;2023-10-13T06:45:37;19.60;98.50
4390;DHT22;2209;48.982;8.406;2023-10-13T06:47:59;19.60;98.50
4390;DHT22;2209;48.982;8.406;2023-10-13T06:50:21;19.60;98.60
4390;DHT22;2209;48.982;8.406;2023-10-13T06:52:45;19.60;98.60
4390;DHT22;2209;48.982;8.406;2023-10-13T06:55:08;19.60;98.60
4390;DHT22;2209;48.982;8.406;2023-10-13T06:57:33;19.60;98.70
4390;DHT22;2209;48.982;8.406;2023-10-13T06:59:58;19.50;98.70
4390;DHT22;2209;48.982;8.406;2023-10-13T07:02:20;19.60;98.80
4390;DHT22;2209;48.982;8.406;2023-10-13T07:04:43;19.60;98.80
4390;DHT22;2209;48.982;8.406;2023-10-13T07:07:05;19.50;98.80
4390;DHT22;2209;48.982;8.406;2023-10-13T07:09:31;19.50;98.80
4390;DHT22;2209;48.982;8.406;2023-10-13T07:12:04;19.50;98.90
4390;DHT22;2209;48.982;8.406;2023-10-13T07:14:38;19.50;99.00
4390;DHT22;2209;48.982;8.406;2023-10-13T07:17:02;19.50;99.00
4390;DHT22;2209;48.982;8.406;2023-10-13T07:19:25;19.60;99.10
4390;DHT22;2209;48.982;8.406;2023-10-13T07:21:48;19.60;99.10
4390;DHT22;2209;48.982;8.406;2023-10-13T07:24:18;19.60;99.10
4390;DHT22;2209;48.982;8.406;2023-10-13T07:26:43;19.60;99.10
4390;DHT22;2209;48.982;8.406;2023-10-13T07:29:06;19.60;99.10
4390;DHT22;2209;48.982;8.406;2023-10-13T07:31:30;19.60;99.10
4390;DHT22;2209;48.982;8.406;2023-10-13T07:33:52;19.50;99.10
4390;DHT22;2209;48.982;8.406;2023-10-13T07:36:25;19.60;99.10
4390;DHT22;2209;48.982;8.406;2023-10-13T07:38:54;19.60;99.30
4390;DHT22;2209;48.982;8.406;2023-10-13T07:41:34;19.60;99.20
4390;DHT22;2209;48.982;8.406;2023-10-13T07:43:57;19.60;99.10
4390;DHT22;2209;48.982;8.406;2023-10-13T07:46:20;19.60;99.20
4390;DHT22;2209;48.982;8.406;2023-10-13T07:48:52;19.60;99.20
4390;DHT22;2209;48.982;8.406;2023-10-13T07:51:14;19.60;99.20
4390;DHT22;2209;48.982;8.406;2023-10-13T07:53:39;19.60;99.20
4390;DHT22;2209;48.982;8.406;2023-10-13T07:56:01;19.60;99.20
4390;DHT22;2209;48.982;8.406;2023-10-13T07:58:25;19.60;99.00
4390;DHT22;2209;48.982;8.406;2023-10-13T08:00:48;19.60;98.90
4390;DHT22;2209;48.982;8.406;2023-10-13T08:03:14;19.70;98.80
4390;DHT22;2209;48.982;8.406;2023-10-13T08:05:54;19.70;98.70
4390;DHT22;2209;48.982;8.406;2023-10-13T08:08:25;19.70;98.60
4390;DHT22;2209;48.982;8.406;2023-10-13T08:10:57;19.70;98.50
4390;DHT22;2209;48.982;8.406;2023-10-13T08:13:29;19.70;98.50
4390;DHT22;2209;48.982;8.406;2023-10-13T08:15:51;19.70;98.50
4390;DHT22;2209;48.982;8.406;2023-10-13T08:18:15;19.70;98.60
4390;DHT22;2209;48.982;8.406;2023-10-13T08:20:50;19.70;98.70
4390;DHT22;2209;48.982;8.406;2023-10-13T08:23:16;19.80;98.90
4390;DHT22;2209;48.982;8.406;2023-10-13T08:25:41;19.80;99.00
4390;DHT22;2209;48.982;8.406;2023-10-13T08:28:20;19.80;99.00
4390;DHT22;2209;48.982;8.406;2023-10-13T08:31:03;19.80;98.80
4390;DHT22;2209;48.982;8.406;2023-10-13T08:33:35;19.80;98.50
4390;DHT22;2209;48.982;8.406;2023-10-13T08:35:59;19.90;98.50
4390;DHT22;2209;48.982;8.406;2023-10-13T08:38:36;19.90;98.70
4390;DHT22;2209;48.982;8.406;2023-10-13T08:41:14;19.90;97.50
4390;DHT22;2209;48.982;8.406;2023-10-13T08:43:51;20.00;96.30
4390;DHT22;2209;48.982;8.406;2023-10-13T08:46:14;20.00;95.90
4390;DHT22;2209;48.982;8.406;2023-10-13T08:48:48;20.10;95.60
4390;DHT22;2209;48.982;8.406;2023-10-13T08:51:09;20.10;95.40
4390;DHT22;2209;48.982;8.406;2023-10-13T08:53:53;20.20;95.10
4390;DHT22;2209;48.982;8.406;2023-10-13T08:56:19;20.20;95.20
4390;DHT22;2209;48.982;8.406;2023-10-13T08:58:55;20.30;95.30
4390;DHT22;2209;48.982;8.406;2023-10-13T09:01:32;20.30;95.30
4390;DHT22;2209;48.982;8.406;2023-10-13T09:03:58;20.30;95.20
4390;DHT22;2209;48.982;8.406;2023-10-13T09:06:41;20.40;95.30
4390;DHT22;2209;48.982;8.406;2023-10-13T09:09:09;20.40;95.40
4390;DHT22;2209;48.982;8.406;2023-10-13T09:11:47;20.40;95.40
4390;DHT22;2209;48.982;8.406;2023-10-13T09:14:14;20.50;95.40
4390;DHT22;2209;48.982;8.406;2023-10-13T09:17:01;20.50;95.20
4390;DHT22;2209;48.982;8.406;2023-10-13T09:19:28;20.50;95.10
4390;DHT22;2209;48.982;8.406;2023-10-13T09:21:57;20.60;95.10
4390;DHT22;2209;48.982;8.406;2023-10-13T09:24:21;20.60;95.00
4390;DHT22;2209;48.982;8.406;2023-10-13T09:26:42;20.60;95.00
4390;DHT22;2209;48.982;8.406;2023-10-13T09:29:14;20.70;94.80
4390;DHT22;2209;48.982;8.406;2023-10-13T09:31:35;20.70;94.50
4390;DHT22;2209;48.982;8.406;2023-10-13T09:33:59;20.70;94.30
4390;DHT22;2209;48.982;8.406;2023-10-13T09:36:23;20.80;94.40
4390;DHT22;2209;48.982;8.406;2023-10-13T09:38:47;20.80;94.40
4390;DHT22;2209;48.982;8.406;2023-10-13T09:41:30;20.80;94.40
4390;DHT22;2209;48.982;8.406;2023-10-13T09:43:53;20.90;94.30
4390;DHT22;2209;48.982;8.406;2023-10-13T09:46:19;20.90;94.30
4390;DHT22;2209;48.982;8.406;2023-10-13T09:48:45;21.00;94.10
4390;DHT22;2209;48.982;8.406;2023-10-13T09:51:12;21.00;93.00
4390;DHT22;2209;48.982;8.406;2023-10-13T09:53:35;21.10;91.70
4390;DHT22;2209;48.982;8.406;2023-10-13T09:56:03;21.20;91.70
4390;DHT22;2209;48.982;8.406;2023-10-13T09:58:35;21.40;90.80
4390;DHT22;2209;48.982;8.406;2023-10-13T10:00:59;21.40;90.70
4390;DHT22;2209;48.982;8.406;2023-10-13T10:03:29;21.50;90.60
4390;DHT22;2209;48.982;8.406;2023-10-13T10:05:58;21.60;90.40
4390;DHT22;2209;48.982;8.406;2023-10-13T10:08:25;21.60;90.10
4390;DHT22;2209;48.982;8.406;2023-10-13T10:11:01;21.70;90.00
4390;DHT22;2209;48.982;8.406;2023-10-13T10:13:34;21.80;88.90
4390;DHT22;2209;48.982;8.406;2023-10-13T10:15:59;21.90;88.40
4390;DHT22;2209;48.982;8.406;2023-10-13T10:18:25;21.90;88.00
4390;DHT22;2209;48.982;8.406;2023-10-13T10:20:47;22.00;88.70
4390;DHT22;2209;48.982;8.406;2023-10-13T10:23:24;22.00;88.80
4390;DHT22;2209;48.982;8.406;2023-10-13T10:25:48;22.10;88.10
4390;DHT22;2209;48.982;8.406;2023-10-13T10:28:12;22.20;87.80
4390;DHT22;2209;48.982;8.406;2023-10-13T10:30:37;22.20;88.20
4390;DHT22;2209;48.982;8.406;2023-10-13T10:33:02;22.30;87.10
4390;DHT22;2209;48.982;8.406;2023-10-13T10:35:33;22.30;87.20
4390;DHT22;2209;48.982;8.406;2023-10-13T10:37:56;22.40;86.90
4390;DHT22;2209;48.982;8.406;2023-10-13T10:40:32;22.40;87.10
4390;DHT22;2209;48.982;8.406;2023-10-13T10:43:07;22.50;85.50
4390;DHT22;2209;48.982;8.406;2023-10-13T10:45:30;22.60;86.00
4390;DHT22;2209;48.982;8.406;2023-10-13T10:47:54;22.60;86.10
4390;DHT22;2209;48.982;8.406;2023-10-13T10:50:26;22.60;85.30
4390;DHT22;2209;48.982;8.406;2023-10-13T10:52:55;22.70;84.60
4390;DHT22;2209;48.982;8.406;2023-10-13T10:55:19;22.80;83.30
4390;DHT22;2209;48.982;8.406;2023-10-13T10:57:43;22.90;83.10
4390;DHT22;2209;48.982;8.406;2023-10-13T11:00:06;22.90;83.20
4390;DHT22;2209;48.982;8.406;2023-10-13T11:02:39;22.90;83.00
4390;DHT22;2209;48.982;8.406;2023-10-13T11:05:01;22.90;82.40
4390;DHT22;2209;48.982;8.406;2023-10-13T11:07:28;23.00;83.10
4390;DHT22;2209;48.982;8.406;2023-10-13T11:09:51;23.00;82.70
4390;DHT22;2209;48.982;8.406;2023-10-13T11:12:26;23.00;82.70
4390;DHT22;2209;48.982;8.406;2023-10-13T11:14:48;23.00;82.50
4390;DHT22;2209;48.982;8.406;2023-10-13T11:17:10;23.00;82.60
4390;DHT22;2209;48.982;8.406;2023-10-13T11:19:42;23.10;81.30
4390;DHT22;2209;48.982;8.406;2023-10-13T11:22:11;23.10;81.40
4390;DHT22;2209;48.982;8.406;2023-10-13T11:24:51;23.10;81.70
4390;DHT22;2209;48.982;8.406;2023-10-13T11:27:15;23.20;81.70
4390;DHT22;2209;48.982;8.406;2023-10-13T11:29:42;23.30;80.60
4390;DHT22;2209;48.982;8.406;2023-10-13T11:32:12;23.30;80.20
4390;DHT22;2209;48.982;8.406;2023-10-13T11:34:40;23.40;79.70
4390;DHT22;2209;48.982;8.406;2023-10-13T11:37:02;23.50;79.60
4390;DHT22;2209;48.982;8.406;2023-10-13T11:39:45;23.50;80.00
4390;DHT22;2209;48.982;8.406;2023-10-13T11:42:09;23.60;80.50
4390;DHT22;2209;48.982;8.406;2023-10-13T11:44:32;23.60;79.40
4390;DHT22;2209;48.982;8.406;2023-10-13T11:47:04;23.80;79.10
4390;DHT22;2209;48.982;8.406;2023-10-13T11:49:51;23.80;78.80
4390;DHT22;2209;48.982;8.406;2023-10-13T11:52:17;23.90;78.90
4390;DHT22;2209;48.982;8.406;2023-10-13T11:54:39;23.90;79.00
4390;DHT22;2209;48.982;8.406;2023-10-13T11:57:02;24.00;79.30
4390;DHT22;2209;48.982;8.406;2023-10-13T11:59:27;24.00;78.80
4390;DHT22;2209;48.982;8.406;2023-10-13T12:01:50;24.10;78.60
4390;DHT22;2209;48.982;8.406;2023-10-13T12:04:29;24.10;79.10
4390;DHT22;2209;48.982;8.406;2023-10-13T12:06:55;24.20;78.40
4390;DHT22;2209;48.982;8.406;2023-10-13T12:09:35;24.30;77.60
4390;DHT22;2209;48.982;8.406;2023-10-13T12:12:12;24.40;77.40
4390;DHT22;2209;48.982;8.406;2023-10-13T12:14:36;24.40;77.10
4390;DHT22;2209;48.982;8.406;2023-10-13T12:16:58;24.50;77.00
4390;DHT22;2209;48.982;8.406;2023-10-13T12:19:25;24.50;77.50
4390;DHT22;2209;48.982;8.406;2023-10-13T12:21:49;24.50;77.50
4390;DHT22;2209;48.982;8.406;2023-10-13T12:24:15;24.60;76.80
4390;DHT22;2209;48.982;8.406;2023-10-13T12:26:51;24.60;77.00
4390;DHT22;2209;48.982;8.406;2023-10-13T12:29:16;24.60;77.30
4390;DHT22;2209;48.982;8.406;2023-10-13T12:31:44;24.70;76.80
4390;DHT22;2209;48.982;8.406;2023-10-13T12:34:13;24.70;76.50
4390;DHT22;2209;48.982;8.406;2023-10-13T12:36:40;24.80;76.20
4390;DHT22;2209;48.982;8.406;2023-10-13T12:39:14;24.90;76.40
4390;DHT22;2209;48.982;8.406;2023-10-13T12:41:53;24.90;76.00
4390;DHT22;2209;48.982;8.406;2023-10-13T12:44:33;25.00;76.20
4390;DHT22;2209;48.982;8.406;2023-10-13T12:47:13;25.00;76.80
4390;DHT22;2209;48.982;8.406;2023-10-13T12:49:53;25.00;75.90
4390;DHT22;2209;48.982;8.406;2023-10-13T12:52:20;25.10;76.00
4390;DHT22;2209;48.982;8.406;2023-10-13T12:54:47;25.10;75.80
4390;DHT22;2209;48.982;8.406;2023-10-13T12:57:19;25.20;75.90
4390;DHT22;2209;48.982;8.406;2023-10-13T12:59:43;25.30;74.80
4390;DHT22;2209;48.982;8.406;2023-10-13T13:02:05;25.30;75.30
4390;DHT22;2209;48.982;8.406;2023-10-13T13:04:36;25.30;75.00
4390;DHT22;2209;48.982;8.406;2023-10-13T13:06:58;25.40;74.20
4390;DHT22;2209;48.982;8.406;2023-10-13T13:09:19;25.50;74.10
4390;DHT22;2209;48.982;8.406;2023-10-13T13:11:46;25.50;74.00
4390;DHT22;2209;48.982;8.406;2023-10-13T13:14:10;25.50;73.80
4390;DHT22;2209;48.982;8.406;2023-10-13T13:16:32;25.50;73.20
4390;DHT22;2209;48.982;8.406;2023-10-13T13:18:54;25.60;72.50
4390;DHT22;2209;48.982;8.406;2023-10-13T13:21:17;25.60;72.80
4390;DHT22;2209;48.982;8.406;2023-10-13T13:23:43;25.60;72.60
4390;DHT22;2209;48.982;8.406;2023-10-13T13:26:06;25.70;72.60
4390;DHT22;2209;48.982;8.406;2023-10-13T13:28:36;25.70;72.70
4390;DHT22;2209;48.982;8.406;2023-10-13T13:30:59;25.70;72.90
4390;DHT22;2209;48.982;8.406;2023-10-13T13:33:21;25.80;73.50
4390;DHT22;2209;48.982;8.406;2023-10-13T13:35:46;25.90;72.80
4390;DHT22;2209;48.982;8.406;2023-10-13T13:38:11;26.00;72.30
4390;DHT22;2209;48.982;8.406;2023-10-13T13:40:37;26.10;72.60
4390;DHT22;2209;48.982;8.406;2023-10-13T13:42:59;26.20;72.20
4390;DHT22;2209;48.982;8.406;2023-10-13T13:45:22;26.30;71.20
4390;DHT22;2209;48.982;8.406;2023-10-13T13:47:48;26.30;70.90
4390;DHT22;2209;48.982;8.406;2023-10-13T13:50:14;26.40;70.90
4390;DHT22;2209;48.982;8.406;2023-10-13T13:52:44;26.40;71.10
4390;DHT22;2209;48.982;8.406;2023-10-13T13:55:09;26.50;70.40
4390;DHT22;2209;48.982;8.406;2023-10-13T13:57:31;26.50;70.30
4390;DHT22;2209;48.982;8.406;2023-10-13T13:59:53;26.60;70.10
4390;DHT22;2209;48.982;8.406;2023-10-13T14:02:16;26.70;68.80
4390;DHT22;2209;48.982;8.406;2023-10-13T14:04:41;26.80;69.30
4390;DHT22;2209;48.982;8.406;2023-10-13T14:07:07;26.70;69.40
4390;DHT22;2209;48.982;8.406;2023-10-13T14:09:29;26.80;69.00
4390;DHT22;2209;48.982;8.406;2023-10-13T14:11:58;26.90;68.90
4390;DHT22;2209;48.982;8.406;2023-10-13T14:14:38;26.90;68.50
4390;DHT22;2209;48.982;8.406;2023-10-13T14:17:07;26.90;68.20
4390;DHT22;2209;48.982;8.406;2023-10-13T14:19:29;27.00;67.50
4390;DHT22;2209;48.982;8.406;2023-10-13T14:21:51;27.10;67.10
4390;DHT22;2209;48.982;8.406;2023-10-13T14:24:14;27.20;67.30
4390;DHT22;2209;48.982;8.406;2023-10-13T14:26:36;27.20;67.00
4390;DHT22;2209;48.982;8.406;2023-10-13T14:28:59;27.30;66.80
4390;DHT22;2209;48.982;8.406;2023-10-13T14:31:22;27.30;67.10
4390;DHT22;2209;48.982;8.406;2023-10-13T14:33:46;27.30;67.90
4390;DHT22;2209;48.982;8.406;2023-10-13T14:36:10;27.30;67.30
4390;DHT22;2209;48.982;8.406;2023-10-13T14:38:32;27.30;67.40
4390;DHT22;2209;48.982;8.406;2023-10-13T14:40:56;27.30;67.10
4390;DHT22;2209;48.982;8.406;2023-10-13T14:43:18;27.30;66.80
4390;DHT22;2209;48.982;8.406;2023-10-13T14:45:44;27.30;67.10
4390;DHT22;2209;48.982;8.406;2023-10-13T14:48:07;27.30;66.90
4390;DHT22;2209;48.982;8.406;2023-10-13T14:50:29;27.40;67.30
4390;DHT22;2209;48.982;8.406;2023-10-13T14:52:51;27.40;67.10
4390;DHT22;2209;48.982;8.406;2023-10-13T14:55:13;27.50;66.90
4390;DHT22;2209;48.982;8.406;2023-10-13T14:57:40;27.40;67.30
4390;DHT22;2209;48.982;8.406;2023-10-13T15:00:03;27.40;67.50
4390;DHT22;2209;48.982;8.406;2023-10-13T15:02:35;27.40;67.70
4390;DHT22;2209;48.982;8.406;2023-10-13T15:04:57;27.40;67.90
4390;DHT22;2209;48.982;8.406;2023-10-13T15:07:19;27.50;67.60
4390;DHT22;2209;48.982;8.406;2023-10-13T15:09:43;27.50;66.70
4390;DHT22;2209;48.982;8.406;2023-10-13T15:12:05;27.50;65.80
4390;DHT22;2209;48.982;8.406;2023-10-13T15:14:29;27.60;65.30
4390;DHT22;2209;48.982;8.406;2023-10-13T15:16:53;27.60;64.90
4390;DHT22;2209;48.982;8.406;2023-10-13T15:19:17;27.60;63.80
4390;DHT22;2209;48.982;8.406;2023-10-13T15:21:40;27.70;63.80
4390;DHT22;2209;48.982;8.406;2023-10-13T15:24:03;27.80;62.10
4390;DHT22;2209;48.982;8.406;2023-10-13T15:26:34;27.80;61.50
4390;DHT22;2209;48.982;8.406;2023-10-13T15:28:59;27.80;61.40
4390;DHT22;2209;48.982;8.406;2023-10-13T15:31:21;27.70;61.20
4390;DHT22;2209;48.982;8.406;2023-10-13T15:33:58;27.80;61.10
4390;DHT22;2209;48.982;8.406;2023-10-13T15:36:23;27.80;60.90
4390;DHT22;2209;48.982;8.406;2023-10-13T15:38:45;27.70;60.70
4390;DHT22;2209;48.982;8.406;2023-10-13T15:41:07;27.80;60.50
4390;DHT22;2209;48.982;8.406;2023-10-13T15:43:29;27.80;60.10
4390;DHT22;2209;48.982;8.406;2023-10-13T15:45:51;27.80;59.80
4390;DHT22;2209;48.982;8.406;2023-10-13T15:48:13;27.80;59.60
4390;DHT22;2209;48.982;8.406;2023-10-13T15:50:36;27.80;59.80
4390;DHT22;2209;48.982;8.406;2023-10-13T15:53:02;27.80;59.90
4390;DHT22;2209;48.982;8.406;2023-10-13T15:55:24;27.80;60.10
4390;DHT22;2209;48.982;8.406;2023-10-13T15:57:47;27.70;60.10
4390;DHT22;2209;48.982;8.406;2023-10-13T16:00:13;27.80;60.50
4390;DHT22;2209;48.982;8.406;2023-10-13T16:02:45;27.70;60.30
4390;DHT22;2209;48.982;8.406;2023-10-13T16:05:07;27.70;60.50
4390;DHT22;2209;48.982;8.406;2023-10-13T16:07:29;27.70;60.80